Los Lunas ASC

2021-10-22 04:35:00

  • imperial
Date Time Air Temperature Relative Humidity Dewpoint Heat Index Wind Speed Wind Dir. Rain Solar Radiation Soil Temperature
2m 2m 3m 3m 10cm
US/Mountain F % F F MPH deg in MJ/m^2 F
max avg avg
2021-10-21 04:45:00 36.9 52.9 21.3 36.9 0.0 0.0 0.0 245.6 0.0 0.00 0.0000000 57.7
2021-10-21 04:50:00 36.7 51.9 20.6 36.7 0.0 0.0 0.0 323.3 0.0 0.00 0.0000000 57.6
2021-10-21 04:55:00 37.3 50.4 20.5 37.3 0.8 1.5 0.5 345.6 294.1 0.00 0.0000000 57.5
2021-10-21 05:00:00 37.6 49.2 20.2 37.6 0.0 1.5 0.2 260.7 284.8 0.00 0.0000000 57.5
2021-10-21 05:05:00 37.5 49.2 20.1 37.5 0.0 0.0 0.0 275.6 0.0 0.00 0.0000000 57.4
2021-10-21 05:10:00 36.9 53.4 21.5 36.9 0.0 0.0 0.0 275.6 0.0 0.00 0.0000000 57.3
2021-10-21 05:15:00 36.6 51.7 20.5 36.6 0.0 0.0 0.0 272.7 0.0 0.00 0.0000000 57.3
2021-10-21 05:20:00 36.4 50.8 19.9 36.4 0.0 0.0 0.0 273.5 0.0 0.00 0.0000000 57.2
2021-10-21 05:25:00 36.5 52.0 20.5 36.5 0.0 0.0 0.0 236.4 0.0 0.00 0.0000000 57.1
2021-10-21 05:30:00 36.7 51.3 20.4 36.7 1.7 2.1 1.1 301.8 261.5 0.00 0.0000000 57.1
2021-10-21 05:35:00 36.3 53.0 20.8 36.3 1.2 1.5 0.4 242.5 260.7 0.00 0.0000000 57.0
2021-10-21 05:40:00 36.0 55.7 21.7 36.0 1.3 1.7 1.0 179.1 233.7 0.00 0.0000000 56.9
2021-10-21 05:45:00 35.5 53.8 20.4 35.5 1.3 2.1 1.4 277.4 213.5 0.00 0.0000000 56.9
2021-10-21 05:50:00 35.4 56.6 21.5 35.4 0.0 1.3 0.2 168.9 249.9 0.00 0.0000000 56.8
2021-10-21 05:55:00 35.1 55.4 20.8 35.1 1.0 1.0 0.1 202.5 206.3 0.00 0.0000000 56.8
2021-10-21 06:00:00 35.1 54.3 20.2 35.1 0.8 2.2 0.9 172.7 211.6 0.00 0.0000000 56.7
2021-10-21 06:05:00 35.4 50.8 19.0 35.4 0.0 2.4 1.1 160.3 168.8 0.00 0.0000000 56.7
2021-10-21 06:10:00 34.8 57.0 21.1 34.8 1.7 1.7 0.7 208.2 193.4 0.00 0.0000000 56.6
2021-10-21 06:15:00 34.8 54.0 19.8 34.8 1.9 1.9 1.6 206.6 197.2 0.00 0.0000000 56.5
2021-10-21 06:20:00 34.7 55.0 20.1 34.7 0.0 1.7 1.0 99.9 155.6 0.00 0.0000000 56.4
2021-10-21 06:25:00 34.5 55.9 20.4 34.5 0.0 0.0 0.0 100.9 0.0 0.00 0.0000000 56.4
2021-10-21 06:30:00 34.2 58.2 21.0 34.2 1.3 1.3 0.0 223.4 223.4 0.00 0.0000000 56.3
2021-10-21 06:35:00 34.3 59.3 21.6 34.3 0.0 1.7 0.3 217.6 203.0 0.00 0.0000000 56.3
2021-10-21 06:40:00 34.1 61.1 22.1 34.1 0.8 0.8 0.1 155.5 150.7 0.00 0.0000000 56.2
2021-10-21 06:45:00 34.0 62.1 22.4 34.0 1.5 1.5 0.2 212.7 176.2 0.00 0.0000000 56.1
2021-10-21 06:50:00 34.0 63.3 22.9 34.0 0.0 1.9 1.1 179.4 207.9 0.00 0.0000000 56.1
2021-10-21 06:55:00 33.6 63.1 22.4 33.6 0.0 1.2 0.2 203.5 213.2 0.00 0.0000000 56.0
2021-10-21 07:00:00 33.3 64.6 22.7 33.3 0.0 1.9 0.4 175.9 193.2 0.00 0.0000000 55.9
2021-10-21 07:05:00 33.4 64.5 22.7 33.4 0.0 1.5 0.4 313.5 247.1 0.00 0.0010000 55.9
2021-10-21 07:10:00 33.1 62.7 21.7 33.1 0.0 1.7 0.4 236.1 283.6 0.00 0.0020000 55.8
2021-10-21 07:15:00 32.6 62.0 21.0 32.6 1.2 1.5 0.4 255.3 283.0 0.00 0.0030000 55.7
2021-10-21 07:20:00 32.4 61.1 20.5 32.4 1.0 1.3 0.4 288.5 281.2 0.00 0.0040000 55.7
2021-10-21 07:25:00 32.1 61.2 20.3 32.1 0.0 0.8 0.1 263.3 301.2 0.00 0.0060000 55.6
2021-10-21 07:30:00 32.1 61.7 20.5 32.1 0.0 0.0 0.0 276.7 0.0 0.00 0.0080000 55.6
2021-10-21 07:35:00 31.8 61.8 20.2 31.8 1.0 1.2 0.2 241.0 275.1 0.00 0.0130000 55.5
2021-10-21 07:40:00 31.8 61.9 20.3 31.8 0.0 0.8 0.0 258.6 221.2 0.00 0.0140000 55.5
2021-10-21 07:45:00 32.3 63.5 21.3 32.3 2.8 3.3 2.1 235.0 235.4 0.00 0.0160000 55.4
2021-10-21 07:50:00 33.4 63.1 22.2 33.4 2.4 2.8 1.9 234.7 238.6 0.00 0.0190000 55.3
2021-10-21 07:55:00 34.3 62.1 22.6 34.3 1.3 2.4 1.9 209.1 222.3 0.00 0.0220000 55.3
2021-10-21 08:00:00 34.9 61.4 23.0 34.9 1.5 1.9 0.9 208.5 207.3 0.00 0.0210000 55.2
2021-10-21 08:05:00 35.6 60.5 23.3 35.6 0.0 1.5 0.5 209.6 214.4 0.00 0.0270000 55.2
2021-10-21 08:10:00 36.1 59.2 23.2 36.1 2.4 3.3 0.9 227.0 243.7 0.00 0.0590000 55.1
2021-10-21 08:15:00 36.6 58.0 23.2 36.6 2.8 2.8 2.0 240.2 242.8 0.00 0.0850000 55.1
2021-10-21 08:20:00 37.2 56.5 23.1 37.2 3.0 3.3 2.4 248.8 245.3 0.00 0.0650000 55.0
2021-10-21 08:25:00 37.8 54.5 22.9 37.8 2.6 3.5 2.4 262.5 234.9 0.00 0.0600000 55.0
2021-10-21 08:30:00 38.6 51.6 22.3 38.6 2.8 3.5 2.6 241.2 238.0 0.00 0.1540000 54.9
2021-10-21 08:35:00 39.5 50.5 22.6 39.5 1.7 3.5 2.1 208.3 227.7 0.00 0.1930000 54.9
2021-10-21 08:40:00 40.2 48.0 22.0 40.2 1.5 3.3 2.2 226.0 237.2 0.00 0.2080000 54.8
2021-10-21 08:45:00 41.4 47.3 22.8 41.4 1.2 1.9 1.0 228.9 229.3 0.00 0.2230000 54.8
2021-10-21 08:50:00 42.1 45.9 22.7 42.1 2.1 2.6 1.6 184.6 205.0 0.00 0.2380000 54.7
2021-10-21 08:55:00 43.3 43.0 22.3 43.3 1.5 3.3 1.9 209.6 194.7 0.00 0.2540000 54.7
2021-10-21 09:00:00 44.7 40.9 22.4 44.7 1.3 2.1 1.4 206.0 199.9 0.00 0.2690000 54.7
2021-10-21 09:05:00 45.8 39.8 22.7 45.8 0.0 2.4 1.2 255.0 212.1 0.00 0.2830000 54.6
2021-10-21 09:10:00 47.4 37.9 23.0 47.4 0.0 1.0 0.2 269.8 279.9 0.00 0.2980000 54.6
2021-10-21 09:15:00 47.9 35.6 22.0 47.9 0.8 2.2 1.0 284.7 234.1 0.00 0.3130000 54.6
2021-10-21 09:20:00 48.3 34.9 21.8 48.3 1.3 2.2 1.4 247.2 239.6 0.00 0.3270000 54.6
2021-10-21 09:25:00 49.8 32.3 21.3 49.8 1.2 1.5 0.7 158.6 317.7 0.00 0.3420000 54.6
2021-10-21 09:30:00 51.2 30.2 20.9 51.2 1.3 2.1 1.2 120.5 128.7 0.00 0.3550000 54.6
2021-10-21 09:35:00 51.2 31.3 21.7 51.2 1.7 2.6 1.8 240.3 222.8 0.00 0.3710000 54.6
2021-10-21 09:40:00 50.8 31.7 21.8 50.8 1.5 3.0 1.3 253.3 242.9 0.00 0.3830000 54.6
2021-10-21 09:45:00 51.6 30.7 21.7 51.6 1.2 2.2 1.3 119.6 230.8 0.00 0.3970000 54.6
2021-10-21 09:50:00 52.7 29.4 21.6 52.7 1.9 3.1 1.9 78.0 82.7 0.00 0.4110000 54.6
2021-10-21 09:55:00 52.8 29.8 22.1 52.8 2.4 2.6 1.9 38.3 56.8 0.00 0.4230000 54.7
2021-10-21 10:00:00 52.4 28.5 20.7 52.4 2.8 3.5 2.5 5.6 55.1 0.00 0.4350000 54.8
2021-10-21 10:05:00 53.3 31.9 24.1 53.3 3.7 3.8 2.3 59.9 35.4 0.00 0.4480000 54.8
2021-10-21 10:10:00 53.5 30.7 23.4 53.5 1.5 3.8 2.4 63.1 46.6 0.00 0.4590000 55.0
2021-10-21 10:15:00 54.3 28.4 22.2 54.3 2.2 3.5 2.2 59.8 39.7 0.00 0.4700000 55.1
2021-10-21 10:20:00 54.3 28.7 22.5 54.3 1.2 3.5 2.1 129.7 55.2 0.00 0.4830000 55.2
2021-10-21 10:25:00 55.5 28.0 22.9 55.5 2.4 3.3 1.8 5.8 63.5 0.00 0.4930000 55.3
2021-10-21 10:30:00 56.7 27.5 23.5 56.7 0.0 2.4 1.1 118.6 21.7 0.00 0.5070000 55.5
2021-10-21 10:35:00 56.8 25.8 22.0 56.8 2.2 3.8 2.0 150.2 71.8 0.00 0.5170000 55.7
2021-10-21 10:40:00 57.5 25.2 22.1 57.5 1.0 3.0 1.8 17.3 62.9 0.00 0.5260000 55.8
2021-10-21 10:45:00 57.6 24.9 21.9 57.6 0.0 3.7 2.0 282.8 61.5 0.00 0.5370000 56.0
2021-10-21 10:50:00 58.3 24.3 21.9 58.3 2.6 3.0 1.9 70.3 52.9 0.00 0.5470000 56.2
2021-10-21 10:55:00 58.9 24.8 22.9 58.9 2.8 3.0 2.2 49.2 23.7 0.00 0.5560000 56.3
2021-10-21 11:00:00 59.8 24.1 23.0 59.8 1.2 3.1 1.9 298.6 60.4 0.00 0.5590000 56.5
2021-10-21 11:05:00 59.9 24.3 23.3 59.9 3.1 4.4 2.2 14.2 29.1 0.00 0.5700000 56.7
2021-10-21 11:10:00 60.4 23.6 23.1 60.4 2.8 5.1 2.9 29.0 15.9 0.00 0.5790000 56.8
2021-10-21 11:15:00 60.1 23.2 22.4 60.1 1.5 4.7 2.5 102.6 40.8 0.00 0.5870000 57.0
2021-10-21 11:20:00 61.1 23.1 23.1 61.1 2.4 3.7 2.2 106.7 115.6 0.00 0.5930000 57.1
2021-10-21 11:25:00 61.8 21.6 22.0 61.8 2.6 3.5 2.1 187.6 163.5 0.00 0.6010000 57.3
2021-10-21 11:30:00 62.1 21.7 22.5 62.1 1.5 3.0 1.9 154.4 114.8 0.00 0.6070000 57.5
2021-10-21 11:35:00 62.2 23.8 24.7 62.2 1.7 3.0 2.0 284.5 179.4 0.00 0.6150000 57.7
2021-10-21 11:40:00 62.7 21.6 22.8 62.7 2.1 3.5 2.0 70.0 14.0 0.00 0.6180000 57.8
2021-10-21 11:45:00 63.8 22.1 24.3 63.8 1.9 3.3 1.5 97.8 73.0 0.00 0.6260000 58.0
2021-10-21 11:50:00 63.4 21.6 23.5 63.4 2.4 3.5 2.0 63.7 75.0 0.00 0.6320000 58.2
2021-10-21 11:55:00 63.7 21.9 24.0 63.7 3.5 4.2 2.5 7.2 57.4 0.00 0.6320000 58.4
2021-10-21 12:00:00 64.6 21.5 24.3 64.6 2.4 3.8 2.3 99.3 223.1 0.00 0.6420000 58.6
2021-10-21 12:05:00 65.4 21.3 24.8 65.4 3.5 4.9 2.4 65.7 56.3 0.00 0.6460000 58.9
2021-10-21 12:10:00 64.8 19.6 22.2 64.8 2.4 4.2 3.2 50.8 36.7 0.00 0.6470000 59.1
2021-10-21 12:15:00 65.7 21.5 25.2 65.7 2.8 3.0 1.4 106.8 129.6 0.00 0.6530000 59.3
2021-10-21 12:20:00 66.8 22.3 27.1 66.8 1.2 3.7 2.2 200.6 161.3 0.00 0.6580000 59.5
2021-10-21 12:25:00 67.2 20.5 25.4 67.2 2.6 4.0 2.2 41.9 47.9 0.00 0.6590000 59.7
2021-10-21 12:30:00 66.5 18.7 22.5 66.5 2.4 4.4 2.8 331.6 39.3 0.00 0.6610000 60.0
2021-10-21 12:35:00 67.7 20.9 26.3 67.7 3.5 4.2 1.8 24.6 82.5 0.00 0.6610000 60.2
2021-10-21 12:40:00 68.0 19.4 24.7 68.0 3.7 4.7 2.6 42.8 42.8 0.00 0.6640000 60.5
2021-10-21 12:45:00 69.7 17.8 24.0 69.7 1.2 3.1 1.4 64.7 133.3 0.00 0.6670000 60.7
2021-10-21 12:50:00 69.9 17.9 24.3 69.9 3.1 4.2 2.4 18.9 24.5 0.00 0.6650000 61.0
2021-10-21 12:55:00 69.2 17.8 23.7 69.2 1.5 3.8 2.4 87.9 85.7 0.00 0.6660000 61.2
2021-10-21 13:00:00 69.8 16.3 22.0 69.8 3.1 4.0 2.3 29.8 57.4 0.00 0.6680000 61.5
2021-10-21 13:05:00 69.9 15.2 20.4 69.9 3.5 4.0 2.1 337.2 95.5 0.00 0.6650000 61.7
2021-10-21 13:10:00 70.2 17.7 24.2 70.2 2.1 3.0 2.3 169.1 340.4 0.00 0.6630000 62.0
2021-10-21 13:15:00 71.0 15.8 22.2 71.0 3.0 3.1 2.1 0.0 79.3 0.00 0.6620000 62.2
2021-10-21 13:20:00 70.5 16.4 22.8 70.5 1.3 3.8 2.5 119.7 66.6 0.00 0.6610000 62.5
2021-10-21 13:25:00 71.0 18.3 25.7 71.0 1.5 3.3 2.0 11.2 233.9 0.00 0.6580000 62.7
2021-10-21 13:30:00 73.3 14.2 21.6 73.3 1.0 1.9 1.2 108.3 133.9 0.00 0.6580000 63.0
2021-10-21 13:35:00 74.0 14.0 21.8 74.0 0.8 2.4 1.1 133.9 145.1 0.00 0.6550000 63.2
2021-10-21 13:40:00 73.5 14.0 21.4 73.5 3.3 3.3 1.4 196.6 37.1 0.00 0.6510000 63.4
2021-10-21 13:45:00 73.0 14.7 22.0 73.0 4.2 4.2 2.0 188.8 179.8 0.00 0.6450000 63.7
2021-10-21 13:50:00 72.6 14.5 21.5 72.6 1.7 3.5 2.4 74.3 145.2 0.00 0.6420000 63.9
2021-10-21 13:55:00 71.7 16.1 23.3 71.7 0.0 3.7 1.9 127.7 42.5 0.00 0.6370000 64.2
2021-10-21 14:00:00 73.4 15.9 24.4 73.4 1.9 2.8 1.2 64.3 177.2 0.00 0.6330000 64.4
2021-10-21 14:05:00 74.0 15.1 23.5 74.0 3.1 4.7 2.4 182.2 92.1 0.00 0.6290000 64.7
2021-10-21 14:10:00 72.0 16.1 23.5 72.0 1.9 4.2 3.0 156.4 170.3 0.00 0.6220000 64.9
2021-10-21 14:15:00 73.2 15.1 23.0 73.2 3.3 4.6 2.0 256.8 143.6 0.00 0.6170000 65.1
2021-10-21 14:20:00 74.4 15.3 24.3 74.4 3.0 3.5 2.1 39.0 137.8 0.00 0.6090000 65.3
2021-10-21 14:25:00 73.5 15.4 23.7 73.5 2.4 4.6 2.3 316.3 24.3 0.00 0.6030000 65.6
2021-10-21 14:30:00 74.9 16.5 26.4 74.9 2.6 2.8 1.8 33.5 62.9 0.00 0.5960000 65.8
2021-10-21 14:35:00 74.9 14.9 23.9 74.9 2.6 4.2 2.4 37.6 41.6 0.00 0.5880000 66.0
2021-10-21 14:40:00 74.0 15.9 24.8 74.0 2.2 3.5 2.8 41.3 46.0 0.00 0.5770000 66.2
2021-10-21 14:45:00 73.9 13.9 21.5 73.9 2.4 3.5 2.4 29.6 65.2 0.00 0.5700000 66.4
2021-10-21 14:50:00 74.0 14.9 23.2 74.0 2.2 3.0 2.1 62.7 29.4 0.00 0.5600000 66.6
2021-10-21 14:55:00 73.9 14.6 22.7 73.9 3.3 3.7 2.6 46.3 55.0 0.00 0.5480000 66.7
2021-10-21 15:00:00 73.9 15.3 23.8 73.9 2.8 3.1 2.4 58.9 23.8 0.00 0.5420000 67.0
2021-10-21 15:05:00 74.3 13.6 21.3 74.3 1.5 3.8 2.4 37.8 72.3 0.00 0.5330000 67.1
2021-10-21 15:10:00 74.5 13.7 21.6 74.5 2.4 3.3 2.4 331.1 348.5 0.00 0.4400000 67.3
2021-10-21 15:15:00 74.6 15.6 24.9 74.6 1.7 3.3 2.5 42.5 36.7 0.00 0.5120000 67.4
2021-10-21 15:20:00 73.9 14.0 21.8 73.9 1.0 5.8 3.0 29.6 28.3 0.00 0.4680000 67.6
2021-10-21 15:25:00 74.1 13.6 21.1 74.1 2.6 3.8 2.5 64.0 53.9 0.00 0.4950000 67.7
2021-10-21 15:30:00 74.7 14.3 22.8 74.7 3.3 3.8 2.8 339.9 47.1 0.00 0.4870000 67.9
2021-10-21 15:35:00 74.6 13.0 20.4 74.6 1.3 4.0 2.4 129.4 14.1 0.00 0.4760000 68.0
2021-10-21 15:40:00 76.3 13.3 22.4 76.3 1.9 3.0 1.5 295.8 120.5 0.00 0.4660000 68.1
2021-10-21 15:45:00 76.3 15.6 26.1 76.3 2.8 3.3 2.2 14.3 48.1 0.00 0.4490000 68.2
2021-10-21 15:50:00 75.1 14.3 23.1 75.1 2.4 3.8 2.6 23.6 45.1 0.00 0.4440000 68.3
2021-10-21 15:55:00 76.3 13.6 22.8 76.3 5.5 5.5 2.4 29.9 43.9 0.00 0.4130000 68.4
2021-10-21 16:00:00 74.4 13.9 22.0 74.4 3.1 6.2 3.9 342.8 49.3 0.00 0.4330000 68.4
2021-10-21 16:05:00 74.8 13.7 21.8 74.8 1.5 3.1 2.2 340.5 27.7 0.00 0.3880000 68.5
2021-10-21 16:10:00 75.1 12.5 19.9 75.1 1.7 4.7 2.1 15.7 54.4 0.00 0.3860000 68.6
2021-10-21 16:15:00 74.8 13.5 21.5 74.8 1.0 4.2 2.6 59.9 50.2 0.00 0.3670000 68.7
2021-10-21 16:20:00 75.6 13.0 21.2 75.6 1.7 3.0 1.7 225.5 172.5 0.00 0.3420000 68.8
2021-10-21 16:25:00 76.6 12.2 20.5 76.6 1.2 2.8 1.3 163.0 217.8 0.00 0.0400000 68.9
2021-10-21 16:30:00 76.6 13.6 23.2 76.6 1.5 2.1 1.3 160.3 129.4 0.00 0.2920000 68.9
2021-10-21 16:35:00 75.8 13.6 22.5 75.8 3.1 4.2 2.2 60.3 87.8 0.00 0.2990000 69.0
2021-10-21 16:40:00 74.4 13.3 20.8 74.4 4.0 4.9 3.6 343.3 34.5 0.00 0.2920000 69.1
2021-10-21 16:45:00 74.6 16.3 25.9 74.6 1.3 3.5 2.1 113.6 58.5 0.00 0.2780000 69.1
2021-10-21 16:50:00 75.3 15.5 25.3 75.3 1.9 3.7 1.3 2.5 57.7 0.00 0.2630000 69.2
2021-10-21 16:55:00 75.0 18.4 29.2 75.0 0.8 3.7 1.8 167.5 104.7 0.00 0.2000000 69.2
2021-10-21 17:00:00 74.6 16.6 26.3 74.6 1.5 3.0 1.6 45.4 133.8 0.00 0.2370000 69.2
2021-10-21 17:05:00 74.0 16.7 25.9 74.0 0.0 2.4 1.3 94.1 86.5 0.00 0.2360000 69.3
2021-10-21 17:10:00 74.7 17.7 27.9 74.7 0.8 1.3 0.7 237.8 190.5 0.00 0.2150000 69.3
2021-10-21 17:15:00 74.8 18.3 28.9 74.8 2.1 3.3 0.6 25.5 95.9 0.00 0.1770000 69.3
2021-10-21 17:20:00 73.7 17.5 26.9 73.7 1.3 4.0 2.4 147.2 67.7 0.00 0.2140000 69.3
2021-10-21 17:25:00 73.9 18.2 28.0 73.9 0.0 2.2 0.8 29.9 124.9 0.00 0.1750000 69.3
2021-10-21 17:30:00 73.1 17.8 26.9 73.1 2.1 4.2 2.2 173.8 69.7 0.00 0.1000000 69.3
2021-10-21 17:35:00 71.9 18.6 26.8 71.9 0.0 2.4 1.1 198.4 138.8 0.00 0.1130000 69.2
2021-10-21 17:40:00 71.5 17.6 25.3 71.5 1.5 2.2 0.8 335.9 132.9 0.00 0.0460000 69.2
2021-10-21 17:45:00 71.1 18.1 25.5 71.1 1.0 1.7 0.6 186.9 165.4 0.00 0.0480000 69.1
2021-10-21 17:50:00 70.8 21.1 29.0 70.8 0.0 0.0 0.0 173.2 0.0 0.00 0.0390000 69.0
2021-10-21 17:55:00 69.7 21.4 28.5 69.7 0.0 0.0 0.0 182.8 0.0 0.00 0.0270000 69.0
2021-10-21 18:00:00 68.6 23.6 30.0 68.6 0.0 1.0 0.1 143.5 127.3 0.00 0.0180000 68.9
2021-10-21 18:05:00 67.3 23.0 28.2 67.3 0.0 0.0 0.0 181.1 0.0 0.00 0.0130000 68.8
2021-10-21 18:10:00 66.3 24.8 29.3 66.3 0.0 0.0 0.0 190.1 0.0 0.00 0.0110000 68.8
2021-10-21 18:15:00 65.4 23.8 27.4 65.4 0.0 0.8 0.1 207.1 213.3 0.00 0.0080000 68.7
2021-10-21 18:20:00 64.7 26.1 29.1 64.7 0.0 1.5 0.6 215.1 201.8 0.00 0.0050000 68.6
2021-10-21 18:25:00 64.2 25.9 28.5 64.2 0.0 0.0 0.0 209.9 0.0 0.00 0.0040000 68.5
2021-10-21 18:30:00 63.3 29.4 30.8 63.3 0.0 0.8 0.0 230.1 219.1 0.00 0.0030000 68.4
2021-10-21 18:35:00 62.6 29.6 30.4 62.6 0.0 0.0 0.0 272.5 0.0 0.00 0.0010000 68.3
2021-10-21 18:40:00 62.1 27.1 27.8 62.1 0.0 1.0 0.1 288.7 247.1 0.00 0.0000000 68.2
2021-10-21 18:45:00 61.5 30.0 29.7 61.5 0.0 0.0 0.0 294.2 0.0 0.00 0.0000000 68.1
2021-10-21 18:50:00 61.0 27.4 27.1 61.0 0.0 0.8 0.0 255.2 241.3 0.00 0.0000000 68.0
2021-10-21 18:55:00 60.7 27.7 27.1 60.7 0.0 0.8 0.1 245.6 248.4 0.00 0.0000000 67.8
2021-10-21 19:00:00 60.4 27.2 26.4 60.4 0.0 1.7 0.9 245.0 241.5 0.00 0.0000000 67.7
2021-10-21 19:05:00 59.8 28.5 27.1 59.8 1.0 1.2 0.5 237.5 243.7 0.00 0.0000000 67.6
2021-10-21 19:10:00 58.8 28.9 26.5 58.8 0.0 1.2 0.1 257.8 250.2 0.00 0.0000000 67.5
2021-10-21 19:15:00 58.2 27.1 24.4 58.2 0.0 0.0 0.0 257.7 0.0 0.00 0.0000000 67.3
2021-10-21 19:20:00 57.5 29.4 25.8 57.5 0.0 0.0 0.0 228.1 0.0 0.00 0.0000000 67.2
2021-10-21 19:25:00 57.0 27.9 24.1 57.0 0.0 1.7 0.6 256.3 242.0 0.00 0.0000000 67.0
2021-10-21 19:30:00 56.3 28.2 23.8 56.3 1.7 1.7 0.8 225.0 241.9 0.00 0.0000000 66.9
2021-10-21 19:35:00 56.0 30.2 25.1 56.0 1.2 1.9 1.3 238.8 242.1 0.00 0.0000000 66.8
2021-10-21 19:40:00 55.4 30.1 24.5 55.4 1.3 1.5 1.2 234.4 241.3 0.00 0.0000000 66.6
2021-10-21 19:45:00 54.9 32.3 25.8 54.9 1.0 1.3 1.2 231.3 229.3 0.00 0.0000000 66.5
2021-10-21 19:50:00 54.3 30.9 24.2 54.3 1.9 2.1 1.6 232.8 232.7 0.00 0.0000000 66.4
2021-10-21 19:55:00 54.0 31.1 24.0 54.0 1.0 2.1 1.6 236.4 232.2 0.00 0.0000000 66.2
2021-10-21 20:00:00 53.3 29.7 22.4 53.3 1.7 2.4 1.0 65.3 37.8 0.00 0.0000000 66.1
2021-10-21 20:05:00 52.6 34.4 25.3 52.6 1.3 1.9 1.1 24.8 46.7 0.00 0.0000000 65.9
2021-10-21 20:10:00 51.6 34.8 24.7 51.6 0.0 1.3 0.4 2.8 16.0 0.00 0.0000000 65.8
2021-10-21 20:15:00 51.3 36.4 25.6 51.3 0.8 0.8 0.0 52.4 52.4 0.00 0.0000000 65.7
2021-10-21 20:20:00 50.7 37.8 25.8 50.7 0.0 2.4 1.0 247.0 50.9 0.00 0.0000000 65.5
2021-10-21 20:25:00 50.7 37.8 25.8 50.7 0.0 1.5 0.4 292.7 239.2 0.00 0.0000000 65.4
2021-10-21 20:30:00 50.9 40.2 27.6 50.9 1.7 2.4 1.6 338.4 40.8 0.00 0.0000000 65.2
2021-10-21 20:35:00 50.9 40.4 27.6 50.9 0.0 1.5 0.5 82.5 27.9 0.00 0.0000000 65.1
2021-10-21 20:40:00 50.9 40.6 27.8 50.9 0.0 0.0 0.0 82.5 0.0 0.00 0.0000000 65.0
2021-10-21 20:45:00 50.8 41.3 28.1 50.8 0.0 0.0 0.0 54.3 0.0 0.00 0.0000000 64.8
2021-10-21 20:50:00 50.6 37.1 25.4 50.6 1.7 2.1 1.1 51.2 31.3 0.00 0.0000000 64.7
2021-10-21 20:55:00 51.1 36.8 25.5 51.1 0.0 1.9 1.3 54.3 35.5 0.00 0.0000000 64.6
2021-10-21 21:00:00 50.6 36.0 24.6 50.6 0.0 0.0 0.0 126.2 0.0 0.00 0.0000000 64.4
2021-10-21 21:05:00 50.5 35.7 24.3 50.5 0.8 0.8 0.0 4.2 4.2 0.00 0.0000000 64.3
2021-10-21 21:10:00 50.2 36.1 24.4 50.2 1.7 2.2 1.6 23.5 10.2 0.00 0.0000000 64.2
2021-10-21 21:15:00 50.4 34.4 23.4 50.4 1.5 2.2 1.5 9.4 22.3 0.00 0.0000000 64.0
2021-10-21 21:20:00 50.6 33.3 22.7 50.6 2.4 2.4 1.9 35.9 27.2 0.00 0.0000000 63.9
2021-10-21 21:25:00 50.7 31.6 21.6 50.7 2.1 3.5 2.4 22.5 18.7 0.00 0.0000000 63.8
2021-10-21 21:30:00 50.7 31.5 21.5 50.7 2.1 3.3 2.2 41.2 18.8 0.00 0.0000000 63.7
2021-10-21 21:35:00 50.5 32.0 21.7 50.5 2.4 2.6 2.2 16.6 24.2 0.00 0.0000000 63.5
2021-10-21 21:40:00 50.1 32.3 21.5 50.1 2.1 3.0 2.5 16.3 31.0 0.00 0.0000000 63.4
2021-10-21 21:45:00 49.7 32.7 21.6 49.7 2.1 3.0 2.2 49.7 41.7 0.00 0.0000000 63.3
2021-10-21 21:50:00 49.5 33.0 21.6 49.5 0.0 2.1 0.5 141.5 61.3 0.00 0.0000000 63.2
2021-10-21 21:55:00 48.8 35.3 22.5 48.8 0.0 1.7 1.0 80.9 126.7 0.00 0.0000000 63.1
2021-10-21 22:00:00 48.7 34.3 21.8 48.7 0.0 0.8 0.0 74.0 167.2 0.00 0.0000000 63.0
2021-10-21 22:05:00 49.4 33.9 22.1 49.4 2.1 2.4 1.3 66.3 65.0 0.00 0.0000000 62.8
2021-10-21 22:10:00 50.3 31.5 21.1 50.3 2.8 2.8 1.8 54.7 63.7 0.00 0.0000000 62.7
2021-10-21 22:15:00 50.7 32.3 22.1 50.7 0.8 2.8 1.4 46.9 54.4 0.00 0.0000000 62.6
2021-10-21 22:20:00 50.3 32.2 21.7 50.3 1.5 2.4 1.2 40.5 66.2 0.00 0.0000000 62.5
2021-10-21 22:25:00 49.7 34.3 22.7 49.7 0.8 1.7 0.9 226.5 75.6 0.00 0.0000000 62.4
2021-10-21 22:30:00 49.3 34.9 22.7 49.3 0.0 1.9 0.4 27.9 136.3 0.00 0.0000000 62.3
2021-10-21 22:35:00 48.7 34.1 21.6 48.7 0.0 1.2 0.3 203.4 178.7 0.00 0.0000000 62.1
2021-10-21 22:40:00 48.3 38.1 24.0 48.3 2.1 2.1 0.9 146.6 159.1 0.00 0.0000000 62.0
2021-10-21 22:45:00 47.7 39.8 24.4 47.7 1.9 2.6 1.9 164.6 163.7 0.00 0.0000000 61.9
2021-10-21 22:50:00 47.4 39.3 23.9 47.4 1.3 1.7 1.3 161.8 166.7 0.00 0.0000000 61.8
2021-10-21 22:55:00 47.2 38.0 22.9 47.2 0.8 1.5 0.6 144.1 132.0 0.00 0.0000000 61.7
2021-10-21 23:00:00 47.7 37.3 22.9 47.7 1.0 1.7 1.2 141.1 130.3 0.00 0.0000000 61.6
2021-10-21 23:05:00 47.7 37.1 22.7 47.7 0.8 1.5 0.5 134.9 143.5 0.00 0.0000000 61.5
2021-10-21 23:10:00 47.6 36.5 22.2 47.6 0.0 1.9 0.7 117.4 137.5 0.00 0.0000000 61.4
2021-10-21 23:15:00 47.1 36.3 21.7 47.1 0.0 0.8 0.1 195.8 206.4 0.00 0.0000000 61.3
2021-10-21 23:20:00 47.0 33.9 20.0 47.0 1.9 2.8 0.9 53.4 58.3 0.00 0.0000000 61.2
2021-10-21 23:25:00 47.5 33.8 20.4 47.5 2.4 2.6 1.9 53.3 39.7 0.00 0.0000000 61.1
2021-10-21 23:30:00 46.8 33.4 19.4 46.8 2.6 3.1 2.7 25.0 38.5 0.00 0.0000000 60.9
2021-10-21 23:35:00 47.4 29.5 17.1 47.4 1.9 4.2 2.9 4.0 28.4 0.00 0.0000000 60.9
2021-10-21 23:40:00 47.9 28.3 16.6 47.9 4.2 4.2 2.8 35.4 20.1 0.00 0.0000000 60.8
2021-10-21 23:45:00 48.1 28.1 16.6 48.1 2.1 3.3 2.0 8.7 356.7 0.00 0.0000000 60.7
2021-10-21 23:50:00 47.9 27.9 16.3 47.9 0.8 2.2 1.0 279.6 303.1 0.00 0.0000000 60.6
2021-10-21 23:55:00 47.7 28.1 16.3 47.7 0.0 1.0 0.1 287.5 304.5 0.00 0.0000000 60.5
2021-10-22 00:00:00 47.0 29.6 16.8 47.0 0.0 0.8 0.0 176.1 176.1 0.00 0.0000000 60.4
2021-10-22 00:05:00 46.3 35.9 20.7 46.3 0.0 1.3 0.4 231.7 223.6 0.00 0.0000000 60.3
2021-10-22 00:10:00 45.8 34.9 19.6 45.8 0.8 1.7 0.6 154.1 197.6 0.00 0.0000000 60.2
2021-10-22 00:15:00 46.0 34.7 19.6 46.0 0.0 1.3 0.4 144.3 160.6 0.00 0.0000000 60.1
2021-10-22 00:20:00 46.8 34.0 19.8 46.8 3.1 3.1 1.5 49.0 57.7 0.00 0.0000000 60.0
2021-10-22 00:25:00 47.3 33.4 19.9 47.3 2.1 3.8 2.7 37.9 37.2 0.00 0.0000000 59.9
2021-10-22 00:30:00 47.0 33.1 19.4 47.0 2.6 2.8 2.3 38.7 28.9 0.00 0.0000000 59.8
2021-10-22 00:35:00 46.3 32.7 18.5 46.3 1.7 2.8 2.0 41.4 45.4 0.00 0.0000000 59.7
2021-10-22 00:40:00 46.2 31.4 17.5 46.2 1.0 1.7 1.1 142.6 82.8 0.00 0.0000000 59.6
2021-10-22 00:45:00 45.8 33.4 18.6 45.8 1.3 2.1 1.3 135.4 159.2 0.00 0.0000000 59.6
2021-10-22 00:50:00 45.7 32.2 17.7 45.7 1.3 1.9 1.3 173.9 152.5 0.00 0.0000000 59.5
2021-10-22 00:55:00 45.8 32.9 18.2 45.8 0.0 1.5 1.0 176.5 161.2 0.00 0.0000000 59.4
2021-10-22 01:00:00 45.2 34.1 18.5 45.2 0.8 1.3 0.9 176.4 158.2 0.00 0.0000000 59.3
2021-10-22 01:05:00 45.0 36.2 19.8 45.0 0.0 1.0 0.1 215.1 130.3 0.00 0.0000000 59.2
2021-10-22 01:10:00 44.8 38.9 21.3 44.8 1.0 1.0 0.1 194.5 201.1 0.00 0.0000000 59.1
2021-10-22 01:15:00 44.9 37.5 20.5 44.9 0.8 1.5 0.9 193.1 216.1 0.00 0.0000000 59.0
2021-10-22 01:20:00 44.8 34.0 18.1 44.8 1.9 2.1 1.0 41.6 3.4 0.00 0.0000000 58.9
2021-10-22 01:25:00 45.5 33.7 18.5 45.5 1.0 1.9 1.4 75.2 37.3 0.00 0.0000000 58.9
2021-10-22 01:30:00 45.2 32.2 17.2 45.2 0.8 1.0 0.1 9.2 37.9 0.00 0.0000000 58.8
2021-10-22 01:35:00 44.6 32.6 17.0 44.6 0.0 1.7 0.6 344.2 331.6 0.00 0.0000000 58.7
2021-10-22 01:40:00 44.3 34.6 18.1 44.3 1.0 1.9 0.5 290.7 297.1 0.00 0.0000000 58.6
2021-10-22 01:45:00 43.9 37.8 19.8 43.9 1.0 1.5 0.9 253.7 263.5 0.00 0.0000000 58.5
2021-10-22 01:50:00 43.1 37.6 18.9 43.1 1.9 2.1 1.4 237.0 235.2 0.00 0.0000000 58.5
2021-10-22 01:55:00 42.9 37.9 19.0 42.9 0.0 1.9 0.9 271.1 264.2 0.00 0.0000000 58.4
2021-10-22 02:00:00 42.8 35.2 17.1 42.8 0.0 1.2 0.4 273.9 294.3 0.00 0.0000000 58.3
2021-10-22 02:05:00 42.9 34.4 16.7 42.9 0.0 2.1 1.1 279.8 289.6 0.00 0.0000000 58.2
2021-10-22 02:10:00 42.6 35.2 16.9 42.6 0.0 0.0 0.0 263.1 0.0 0.00 0.0000000 58.1
2021-10-22 02:15:00 42.4 38.3 18.8 42.4 0.0 0.0 0.0 200.2 0.0 0.00 0.0000000 58.1
2021-10-22 02:20:00 41.8 40.9 19.8 41.8 0.0 0.0 0.0 161.8 0.0 0.00 0.0000000 58.0
2021-10-22 02:25:00 41.2 42.2 20.0 41.2 0.0 0.0 0.0 119.5 0.0 0.00 0.0000000 57.9
2021-10-22 02:30:00 40.8 43.3 20.2 40.8 0.0 0.0 0.0 150.2 0.0 0.00 0.0000000 57.8
2021-10-22 02:35:00 40.7 43.0 19.9 40.7 0.0 0.0 0.0 115.9 0.0 0.00 0.0000000 57.7
2021-10-22 02:40:00 40.4 44.8 20.6 40.4 0.0 0.0 0.0 170.5 0.0 0.00 0.0000000 57.7
2021-10-22 02:45:00 40.2 47.6 21.8 40.2 0.0 1.5 0.9 234.7 203.6 0.00 0.0000000 57.6
2021-10-22 02:50:00 40.1 49.1 22.5 40.1 0.0 0.0 0.0 232.8 0.0 0.00 0.0000000 57.5
2021-10-22 02:55:00 39.8 50.3 22.8 39.8 0.0 0.0 0.0 190.2 0.0 0.00 0.0000000 57.4
2021-10-22 03:00:00 39.3 51.6 23.0 39.3 0.0 0.0 0.0 225.2 0.0 0.00 0.0000000 57.4
2021-10-22 03:05:00 39.0 51.2 22.5 39.0 0.0 0.0 0.0 251.8 0.0 0.00 0.0000000 57.3
2021-10-22 03:10:00 39.0 49.9 21.8 39.0 0.8 0.8 0.0 256.6 256.6 0.00 0.0000000 57.2
2021-10-22 03:15:00 38.7 50.4 21.9 38.7 1.5 1.5 0.6 240.8 255.3 0.00 0.0000000 57.1
2021-10-22 03:20:00 38.6 50.1 21.6 38.6 1.2 2.1 1.5 240.0 240.8 0.00 0.0000000 57.1
2021-10-22 03:25:00 38.2 54.9 23.4 38.2 0.8 1.2 0.4 187.1 220.4 0.00 0.0000000 57.0
2021-10-22 03:30:00 37.9 55.0 23.1 37.9 0.0 0.8 0.0 175.2 187.1 0.00 0.0000000 56.9
2021-10-22 03:35:00 37.8 55.8 23.4 37.8 1.3 1.5 1.1 235.3 229.3 0.00 0.0000000 56.9
2021-10-22 03:40:00 37.7 55.8 23.3 37.7 0.0 1.5 0.7 252.8 237.2 0.00 0.0000000 56.8
2021-10-22 03:45:00 37.4 55.1 22.7 37.4 0.0 0.0 0.0 236.1 0.0 0.00 0.0000000 56.7
2021-10-22 03:50:00 37.4 55.7 23.0 37.4 0.0 0.0 0.0 251.4 0.0 0.00 0.0000000 56.7
2021-10-22 03:55:00 37.2 54.0 22.0 37.2 0.0 1.3 0.3 276.9 264.2 0.00 0.0000000 56.6
2021-10-22 04:00:00 37.2 53.2 21.7 37.2 0.8 1.5 1.0 251.8 244.2 0.00 0.0000000 56.5
2021-10-22 04:05:00 37.1 51.9 21.1 37.1 0.0 1.0 0.1 239.9 258.7 0.00 0.0000000 56.4
2021-10-22 04:10:00 36.8 52.3 20.9 36.8 0.0 0.0 0.0 269.9 0.0 0.00 0.0000000 56.4
2021-10-22 04:15:00 36.7 52.6 20.9 36.7 1.3 1.3 0.1 236.2 237.1 0.00 0.0000000 56.3
2021-10-22 04:20:00 36.7 53.2 21.3 36.7 0.0 1.5 0.5 238.5 236.8 0.00 0.0000000 56.2
2021-10-22 04:25:00 36.5 52.6 20.8 36.5 1.0 1.9 0.5 283.2 284.4 0.00 0.0000000 56.1
2021-10-22 04:30:00 36.5 52.9 21.0 36.5 0.0 1.3 0.6 251.9 247.3 0.00 0.0000000 56.0
2021-10-22 04:35:00 36.1 53.6 20.9 36.1 0.0 0.0 0.0 255.8 0.0 0.00 0.0000000 56.0

Data is courtesy of the NM Climate Center. DO NOT USE IN LEGAL PROCEEDINGS.